createdAt,value
2019-03-27T00:00:52.777Z,66.60
2019-03-27T00:03:24.105Z,67.10
2019-03-27T00:05:55.149Z,66.90
2019-03-27T00:08:26.126Z,67.90
2019-03-27T00:10:57.577Z,67.10
2019-03-27T00:13:28.743Z,67.40
2019-03-27T00:15:59.937Z,67.40
2019-03-27T00:18:32.291Z,67.20
2019-03-27T00:21:03.380Z,67.50
2019-03-27T00:23:34.542Z,67.40
2019-03-27T00:26:05.624Z,67.70
2019-03-27T00:28:36.702Z,67.40
2019-03-27T00:31:11.707Z,67.60
2019-03-27T00:33:41.575Z,67.60
2019-03-27T00:36:12.622Z,68.00
2019-03-27T00:38:44.093Z,67.90
2019-03-27T00:41:15.188Z,68.30
2019-03-27T00:43:46.214Z,68.80
2019-03-27T00:46:17.235Z,68.90
2019-03-27T00:48:48.278Z,69.20
2019-03-27T00:51:19.306Z,69.10
2019-03-27T00:53:50.672Z,68.90
2019-03-27T00:56:21.801Z,68.50
2019-03-27T00:58:52.833Z,68.50
2019-03-27T01:01:23.947Z,68.90
2019-03-27T01:03:54.998Z,69.70
2019-03-27T01:06:26.009Z,69.20
2019-03-27T01:08:57.078Z,69.10
2019-03-27T01:11:28.087Z,68.90
2019-03-27T01:13:59.160Z,68.80
2019-03-27T01:16:30.328Z,69.10
2019-03-27T01:19:01.380Z,69.70
2019-03-27T01:21:32.436Z,70.00
2019-03-27T01:24:03.429Z,69.80
2019-03-27T01:26:34.469Z,69.80
2019-03-27T01:29:05.445Z,69.80
2019-03-27T01:31:36.735Z,70.00
2019-03-27T01:34:07.716Z,70.10
2019-03-27T01:36:38.736Z,69.80
2019-03-27T01:39:09.722Z,70.40
2019-03-27T01:41:40.753Z,70.30
2019-03-27T01:44:11.765Z,70.10
2019-03-27T01:46:43.061Z,70.10
2019-03-27T01:49:14.486Z,70.20
2019-03-27T01:51:45.496Z,70.10
2019-03-27T01:54:16.504Z,70.10
2019-03-27T01:56:47.537Z,70.10
2019-03-27T01:59:18.845Z,70.10
2019-03-27T02:01:49.897Z,70.40
2019-03-27T02:04:21.383Z,70.40
2019-03-27T02:06:52.416Z,70.60
2019-03-27T02:09:23.479Z,70.70
2019-03-27T02:11:54.534Z,70.90
2019-03-27T02:14:25.880Z,71.00
2019-03-27T02:16:56.890Z,71.10
2019-03-27T02:19:27.928Z,71.30
2019-03-27T02:21:58.936Z,71.40
2019-03-27T02:24:30.265Z,71.20
2019-03-27T02:27:01.329Z,71.40
2019-03-27T02:29:33.454Z,72.80
2019-03-27T02:32:04.500Z,72.80
2019-03-27T02:34:35.494Z,72.70
2019-03-27T02:37:06.516Z,73.10
2019-03-27T02:39:37.538Z,72.80
2019-03-27T02:42:09.197Z,73.70
2019-03-27T02:44:40.216Z,73.50
2019-03-27T02:47:11.282Z,73.60
2019-03-27T02:49:42.287Z,73.60
2019-03-27T02:52:13.257Z,73.30
2019-03-27T02:54:44.299Z,73.00
2019-03-27T02:57:15.396Z,73.20
2019-03-27T02:59:46.451Z,73.20
2019-03-27T03:02:17.499Z,73.10
2019-03-27T03:04:48.500Z,73.20
2019-03-27T03:07:19.551Z,73.30
2019-03-27T03:09:50.943Z,73.40
2019-03-27T03:12:22.362Z,73.50
2019-03-27T03:14:53.433Z,73.70
2019-03-27T03:17:24.567Z,73.80
2019-03-27T03:19:55.550Z,73.70
2019-03-27T03:22:26.616Z,73.90
2019-03-27T03:24:57.625Z,73.80
2019-03-27T03:27:28.650Z,74.00
2019-03-27T03:30:00.704Z,74.10
2019-03-27T03:32:31.831Z,74.10
2019-03-27T03:35:02.812Z,74.40
2019-03-27T03:37:34.002Z,74.50
2019-03-27T03:40:05.736Z,74.70
2019-03-27T03:42:36.868Z,75.00
2019-03-27T03:45:08.495Z,75.50
2019-03-27T03:47:40.101Z,75.60
2019-03-27T03:50:26.005Z,75.50
2019-03-27T03:52:57.113Z,75.30
2019-03-27T03:55:28.321Z,75.00
2019-03-27T03:57:59.655Z,75.30
2019-03-27T04:00:31.082Z,75.80
2019-03-27T04:03:04.097Z,75.90
2019-03-27T04:05:35.123Z,75.90
2019-03-27T04:08:06.175Z,76.30
2019-03-27T04:10:37.184Z,76.20
2019-03-27T04:13:08.509Z,75.50
2019-03-27T04:15:39.689Z,76.10
2019-03-27T04:18:10.836Z,76.10
2019-03-27T04:20:41.857Z,75.80
2019-03-27T04:23:13.949Z,75.90
2019-03-27T04:26:08.210Z,75.90
2019-03-27T04:28:17.677Z,76.00
2019-03-27T04:30:48.710Z,76.10
2019-03-27T04:33:19.724Z,76.10
2019-03-27T04:35:51.034Z,76.50
2019-03-27T04:38:22.989Z,76.50
2019-03-27T04:40:53.998Z,76.40
2019-03-27T04:43:25.049Z,76.50
2019-03-27T04:45:56.483Z,76.10
2019-03-27T04:48:27.509Z,76.60
2019-03-27T04:50:58.905Z,76.70
2019-03-27T04:53:30.249Z,76.80
2019-03-27T04:56:01.256Z,77.00
2019-03-27T04:58:32.475Z,77.10
2019-03-27T05:01:05.110Z,77.00
2019-03-27T05:03:36.151Z,77.30
2019-03-27T05:06:07.182Z,77.30
2019-03-27T05:08:38.345Z,77.60
2019-03-27T05:11:09.573Z,77.80
2019-03-27T05:13:40.664Z,78.00
2019-03-27T05:16:12.036Z,78.10
2019-03-27T05:18:43.073Z,77.70
2019-03-27T05:21:14.104Z,77.60
2019-03-27T05:23:45.553Z,77.60
2019-03-27T05:26:16.552Z,77.80
2019-03-27T05:28:47.590Z,77.90
2019-03-27T05:31:18.591Z,77.90
2019-03-27T05:33:49.671Z,77.90
2019-03-27T05:36:20.717Z,78.20
2019-03-27T05:38:51.774Z,78.50
2019-03-27T05:41:22.842Z,78.50
2019-03-27T05:43:53.955Z,78.00
2019-03-27T05:46:26.620Z,78.00
2019-03-27T05:48:57.833Z,78.00
2019-03-27T05:51:29.312Z,78.20
2019-03-27T05:54:00.416Z,78.00
2019-03-27T05:56:33.656Z,78.00
2019-03-27T05:59:06.379Z,78.20
2019-03-27T06:01:37.505Z,78.10
2019-03-27T06:04:08.562Z,78.00
2019-03-27T06:06:39.593Z,77.80
2019-03-27T06:09:12.086Z,77.60
2019-03-27T06:11:43.165Z,77.90
2019-03-27T06:14:15.189Z,78.40
2019-03-27T06:16:46.556Z,78.30
2019-03-27T06:19:17.879Z,78.30
2019-03-27T06:21:48.888Z,78.40
2019-03-27T06:24:19.924Z,78.10
2019-03-27T06:26:50.945Z,77.60
2019-03-27T06:29:21.979Z,77.40
2019-03-27T06:31:52.980Z,77.40
2019-03-27T06:34:24.028Z,77.40
2019-03-27T06:36:55.048Z,77.30
2019-03-27T06:39:26.381Z,76.80
2019-03-27T06:41:57.764Z,77.50
2019-03-27T06:44:28.778Z,76.60
2019-03-27T06:47:00.878Z,76.80
2019-03-27T06:49:30.608Z,76.90
2019-03-27T06:52:00.134Z,76.80
2019-03-27T06:54:30.116Z,76.30
2019-03-27T06:57:01.096Z,76.10
2019-03-27T06:59:30.839Z,75.90
2019-03-27T07:02:00.384Z,75.90
2019-03-27T07:04:29.909Z,75.70
2019-03-27T07:06:59.473Z,75.60
2019-03-27T07:09:28.999Z,75.80
2019-03-27T07:11:58.601Z,75.60
2019-03-27T07:14:28.389Z,75.30
2019-03-27T07:16:59.156Z,76.20
2019-03-27T07:19:29.002Z,76.70
2019-03-27T07:21:58.516Z,75.50
2019-03-27T07:24:28.050Z,74.90
2019-03-27T07:26:57.562Z,74.60
2019-03-27T07:29:27.209Z,75.00
2019-03-27T07:31:56.720Z,74.70
2019-03-27T07:34:26.261Z,74.70
2019-03-27T07:36:56.314Z,73.50
2019-03-27T07:39:26.003Z,73.30
2019-03-27T07:41:55.517Z,73.40
2019-03-27T07:44:25.046Z,73.40
2019-03-27T07:46:54.565Z,73.00
2019-03-27T07:49:24.102Z,72.80
2019-03-27T07:51:53.612Z,72.90
2019-03-27T07:54:23.154Z,73.10
2019-03-27T07:56:52.691Z,72.70
2019-03-27T07:59:22.208Z,72.50
2019-03-27T08:01:51.753Z,72.10
2019-03-27T08:04:21.600Z,72.00
2019-03-27T08:06:51.105Z,71.80
2019-03-27T08:09:22.997Z,71.10
2019-03-27T08:11:51.845Z,71.20
2019-03-27T08:14:21.710Z,71.20
2019-03-27T08:16:51.256Z,70.60
2019-03-27T08:19:20.778Z,69.60
2019-03-27T08:21:50.279Z,69.70
2019-03-27T08:24:19.789Z,70.30
2019-03-27T08:26:49.317Z,69.80
2019-03-27T08:29:18.820Z,69.10
2019-03-27T08:31:48.345Z,69.60
2019-03-27T08:34:17.861Z,69.20
2019-03-27T08:36:47.401Z,68.60
2019-03-27T08:39:16.924Z,69.10
2019-03-27T08:41:46.516Z,68.20
2019-03-27T08:44:16.461Z,67.90
2019-03-27T08:46:45.969Z,67.90
2019-03-27T08:49:21.985Z,67.30
2019-03-27T08:51:47.105Z,66.80
2019-03-27T08:54:16.617Z,66.50
2019-03-27T08:56:46.188Z,66.40
2019-03-27T08:59:15.972Z,65.50
2019-03-27T09:01:45.499Z,67.00
2019-03-27T09:04:15.084Z,66.40
2019-03-27T09:06:44.633Z,67.00
2019-03-27T09:09:14.172Z,67.00
2019-03-27T09:11:43.701Z,66.20
2019-03-27T09:14:13.221Z,65.90
2019-03-27T09:16:42.746Z,65.50
2019-03-27T09:19:12.277Z,64.60
2019-03-27T09:21:41.925Z,64.80
2019-03-27T09:24:11.517Z,65.00
2019-03-27T09:26:41.041Z,63.60
2019-03-27T09:29:10.550Z,63.90
2019-03-27T09:31:45.016Z,63.50
2019-03-27T09:34:11.461Z,63.10
2019-03-27T09:36:40.998Z,61.90
2019-03-27T09:39:10.812Z,61.70
2019-03-27T09:41:40.335Z,61.30
2019-03-27T09:44:09.860Z,61.30
2019-03-27T09:46:39.441Z,61.10
2019-03-27T09:49:08.977Z,60.50
2019-03-27T09:51:38.577Z,60.30
2019-03-27T09:54:08.101Z,60.50
2019-03-27T09:56:37.764Z,60.40
2019-03-27T09:59:07.337Z,59.90
2019-03-27T10:01:37.000Z,58.90
2019-03-27T10:04:06.634Z,57.70
2019-03-27T10:06:36.219Z,58.30
2019-03-27T10:09:07.354Z,57.60
2019-03-27T10:11:36.885Z,56.00
2019-03-27T10:14:06.417Z,56.20
2019-03-27T10:16:36.046Z,56.00
2019-03-27T10:19:05.601Z,55.80
2019-03-27T10:21:35.479Z,56.20
2019-03-27T10:24:06.050Z,55.20
2019-03-27T10:26:35.576Z,54.40
2019-03-27T10:29:05.243Z,52.70
2019-03-27T10:31:34.766Z,50.80
2019-03-27T10:34:04.480Z,51.80
2019-03-27T10:36:34.040Z,49.60
2019-03-27T10:39:05.699Z,50.30
2019-03-27T10:41:35.261Z,49.50
2019-03-27T10:44:04.821Z,49.30
2019-03-27T10:46:34.361Z,48.80
2019-03-27T10:49:04.006Z,48.30
2019-03-27T10:51:33.556Z,45.30
2019-03-27T10:54:03.088Z,45.60
2019-03-27T10:56:33.370Z,45.70
2019-03-27T10:59:02.919Z,42.30
2019-03-27T11:01:33.031Z,40.60
2019-03-27T11:04:02.571Z,42.60
2019-03-27T11:06:32.097Z,43.60
2019-03-27T11:09:01.637Z,43.50
2019-03-27T11:11:32.942Z,42.40
2019-03-27T11:14:02.476Z,41.20
2019-03-27T11:16:32.075Z,39.20
2019-03-27T11:19:01.596Z,38.00
2019-03-27T11:21:31.123Z,40.30
2019-03-27T11:24:00.694Z,38.70
2019-03-27T11:26:30.509Z,37.70
2019-03-27T11:29:00.124Z,37.90
2019-03-27T11:31:29.667Z,38.00
2019-03-27T11:33:59.194Z,38.80
2019-03-27T11:36:29.123Z,38.50
2019-03-27T11:38:58.662Z,39.70
2019-03-27T11:41:28.191Z,40.00
2019-03-27T11:43:57.716Z,38.60
2019-03-27T11:46:27.243Z,38.70
2019-03-27T11:48:56.764Z,39.30
2019-03-27T11:51:26.400Z,41.00
2019-03-27T11:53:55.910Z,39.10
2019-03-27T11:56:25.443Z,38.40
2019-03-27T11:58:54.945Z,38.30
2019-03-27T12:01:24.622Z,38.10
2019-03-27T12:03:54.189Z,39.00
2019-03-27T12:06:23.746Z,38.60
2019-03-27T12:08:53.377Z,39.00
2019-03-27T12:11:23.275Z,38.90
2019-03-27T12:13:52.798Z,36.90
2019-03-27T12:16:22.479Z,35.30
2019-03-27T12:18:52.042Z,35.70
2019-03-27T12:21:21.634Z,37.50
2019-03-27T12:23:51.281Z,36.60
2019-03-27T12:26:20.854Z,35.30
2019-03-27T12:28:50.525Z,34.90
2019-03-27T12:31:20.078Z,35.10
2019-03-27T12:33:49.970Z,36.20
2019-03-27T12:36:19.500Z,38.20
2019-03-27T12:38:49.020Z,37.70
2019-03-27T12:41:18.621Z,37.50
2019-03-27T12:43:48.411Z,37.50
2019-03-27T12:46:18.111Z,39.40
2019-03-27T12:48:47.709Z,39.70
2019-03-27T12:51:17.278Z,38.60
2019-03-27T12:53:46.781Z,39.00
2019-03-27T12:56:17.050Z,38.10
2019-03-27T12:58:47.576Z,36.80
2019-03-27T13:01:17.105Z,35.30
2019-03-27T13:03:46.642Z,35.50
2019-03-27T13:06:16.216Z,36.30
2019-03-27T13:08:45.756Z,38.10
2019-03-27T13:11:15.266Z,37.90
2019-03-27T13:13:44.873Z,39.90
2019-03-27T13:16:14.487Z,43.70
2019-03-27T13:18:44.059Z,42.30
2019-03-27T13:21:25.780Z,40.10
2019-03-27T13:23:44.826Z,38.70
2019-03-27T13:26:14.395Z,38.50
2019-03-27T13:28:49.004Z,38.90
2019-03-27T13:31:15.269Z,39.40
2019-03-27T13:33:45.880Z,39.00
2019-03-27T13:36:15.434Z,39.50
2019-03-27T13:38:44.973Z,40.80
2019-03-27T13:41:14.500Z,41.70
2019-03-27T13:43:44.140Z,39.80
2019-03-27T13:46:13.664Z,36.90
2019-03-27T13:48:43.216Z,38.10
2019-03-27T13:51:12.800Z,36.90
2019-03-27T13:53:42.360Z,35.60
2019-03-27T13:56:12.015Z,35.30
2019-03-27T13:58:41.528Z,34.30
2019-03-27T14:01:12.961Z,33.10
2019-03-27T14:03:42.641Z,31.50
2019-03-27T14:06:12.266Z,31.80
2019-03-27T14:08:41.899Z,33.10
2019-03-27T14:11:11.552Z,33.60
2019-03-27T14:13:43.460Z,35.10
2019-03-27T14:16:12.465Z,36.10
2019-03-27T14:18:42.042Z,36.60
2019-03-27T14:21:11.576Z,37.60
2019-03-27T14:23:41.189Z,38.20
2019-03-27T14:26:10.861Z,38.50
2019-03-27T14:28:40.392Z,38.90
2019-03-27T14:31:09.923Z,38.80
2019-03-27T14:33:39.507Z,39.00
2019-03-27T14:36:09.116Z,40.80
2019-03-27T14:38:38.684Z,42.20
2019-03-27T14:41:09.320Z,42.00
2019-03-27T14:43:38.929Z,42.60
2019-03-27T14:46:08.573Z,43.90
2019-03-27T14:48:38.280Z,43.80
2019-03-27T14:51:07.914Z,44.40
2019-03-27T14:53:37.471Z,44.80
2019-03-27T14:56:07.124Z,45.50
2019-03-27T14:58:37.733Z,45.60
2019-03-27T15:01:07.303Z,45.90
2019-03-27T15:03:37.022Z,46.20
2019-03-27T15:06:06.557Z,46.70
2019-03-27T15:08:36.219Z,46.40
2019-03-27T15:11:05.758Z,46.70
2019-03-27T15:13:35.314Z,46.80
2019-03-27T15:16:04.903Z,46.60
2019-03-27T15:18:34.458Z,47.10
2019-03-27T15:21:04.103Z,46.70
2019-03-27T15:23:33.632Z,47.80
2019-03-27T15:26:03.156Z,46.90
2019-03-27T15:28:32.754Z,46.60
2019-03-27T15:31:02.399Z,45.90
2019-03-27T15:33:33.625Z,45.90
2019-03-27T15:36:05.013Z,46.40
2019-03-27T15:38:36.115Z,46.50
2019-03-27T15:41:07.521Z,46.50
2019-03-27T15:43:38.714Z,47.60
2019-03-27T15:46:09.738Z,47.60
2019-03-27T15:48:41.034Z,46.90
2019-03-27T15:51:12.194Z,46.50
2019-03-27T15:53:43.303Z,46.10
2019-03-27T15:56:14.408Z,45.10
2019-03-27T15:58:47.501Z,45.00
2019-03-27T16:01:20.155Z,44.60
2019-03-27T16:03:51.705Z,45.00
2019-03-27T16:06:23.715Z,44.70
2019-03-27T16:08:59.911Z,44.50
2019-03-27T16:11:31.443Z,45.00
2019-03-27T16:14:11.403Z,45.00
2019-03-27T16:17:01.228Z,44.40
2019-03-27T16:19:35.098Z,44.50
2019-03-27T16:22:10.881Z,44.10
2019-03-27T16:25:41.365Z,43.10
2019-03-27T16:28:17.997Z,42.70
2019-03-27T16:31:28.078Z,42.50
2019-03-27T16:33:58.706Z,42.60
2019-03-27T16:36:47.045Z,42.50
2019-03-27T16:39:24.149Z,42.30
2019-03-27T16:42:00.460Z,42.70
2019-03-27T16:45:14.023Z,42.90
2019-03-27T16:47:49.987Z,43.10
2019-03-27T16:50:21.579Z,44.10
2019-03-27T16:53:03.434Z,45.20
2019-03-27T16:55:27.426Z,46.00
2019-03-27T16:57:59.182Z,46.20
2019-03-27T17:00:30.591Z,47.30
2019-03-27T17:03:39.553Z,47.90
2019-03-27T17:07:01.192Z,48.50
2019-03-27T17:09:38.155Z,48.80
2019-03-27T17:12:17.711Z,49.80
2019-03-27T17:14:57.236Z,50.30
2019-03-27T17:17:30.152Z,49.90
2019-03-27T17:20:17.659Z,50.60
2019-03-27T17:22:49.463Z,51.00
2019-03-27T17:25:21.109Z,51.10
2019-03-27T17:27:55.607Z,51.10
2019-03-27T17:30:26.272Z,51.50
2019-03-27T17:32:57.919Z,51.20
2019-03-27T17:35:29.377Z,51.00
2019-03-27T17:38:00.906Z,51.40
2019-03-27T17:40:42.383Z,51.80
2019-03-27T17:43:16.506Z,52.20
2019-03-27T17:45:48.583Z,52.70
2019-03-27T17:48:37.175Z,53.00
2019-03-27T17:51:08.558Z,53.00
2019-03-27T17:54:52.328Z,53.20
2019-03-27T17:57:09.815Z,53.80
2019-03-27T18:00:13.790Z,53.80
2019-03-27T18:02:45.762Z,54.10
2019-03-27T18:05:17.580Z,54.10
2019-03-27T18:07:50.467Z,54.60
2019-03-27T18:10:21.841Z,55.20
2019-03-27T18:12:53.370Z,54.80
2019-03-27T18:15:24.778Z,54.60
2019-03-27T18:17:56.694Z,54.60
2019-03-27T18:20:28.235Z,55.00
2019-03-27T18:23:17.736Z,55.20
2019-03-27T18:26:11.260Z,55.60
2019-03-27T18:28:42.787Z,55.60
2019-03-27T18:31:14.131Z,55.40
2019-03-27T18:33:45.588Z,56.10
2019-03-27T18:36:16.967Z,56.30
2019-03-27T18:38:48.428Z,56.50
2019-03-27T18:41:20.227Z,56.50
2019-03-27T18:43:51.990Z,56.40
2019-03-27T18:46:23.406Z,56.20
2019-03-27T18:48:56.045Z,56.40
2019-03-27T18:51:27.515Z,56.60
2019-03-27T18:54:00.230Z,57.50
2019-03-27T18:56:31.817Z,58.10
2019-03-27T18:59:03.479Z,57.60
2019-03-27T19:01:34.821Z,57.50
2019-03-27T19:04:07.558Z,57.70
2019-03-27T19:06:39.031Z,57.60
2019-03-27T19:09:10.921Z,58.10
2019-03-27T19:12:00.217Z,57.60
2019-03-27T19:14:40.786Z,57.80
2019-03-27T19:17:12.746Z,58.00
2019-03-27T19:19:44.207Z,58.10
2019-03-27T19:22:16.412Z,58.50
2019-03-27T19:24:48.025Z,58.70
2019-03-27T19:27:20.124Z,58.60
2019-03-27T19:29:51.618Z,59.50
2019-03-27T19:32:23.160Z,59.40
2019-03-27T19:34:54.781Z,59.50
2019-03-27T19:37:28.228Z,59.70
2019-03-27T19:40:01.098Z,59.60
2019-03-27T19:42:33.512Z,59.60
2019-03-27T19:45:05.480Z,60.00
2019-03-27T19:47:39.224Z,60.00
2019-03-27T19:50:10.786Z,60.30
2019-03-27T19:52:42.217Z,60.10
2019-03-27T19:55:13.641Z,60.80
2019-03-27T19:57:45.245Z,61.00
2019-03-27T20:00:17.631Z,61.00
2019-03-27T20:02:49.563Z,61.30
2019-03-27T20:05:21.620Z,62.30
2019-03-27T20:07:53.182Z,62.20
2019-03-27T20:10:24.645Z,61.90
2019-03-27T20:12:56.508Z,61.70
2019-03-27T20:15:27.982Z,62.10
2019-03-27T20:17:59.995Z,62.40
2019-03-27T20:20:31.493Z,62.80
2019-03-27T20:23:14.367Z,63.20
2019-03-27T20:25:36.014Z,63.00
2019-03-27T20:28:08.469Z,62.70
2019-03-27T20:30:39.886Z,62.90
2019-03-27T20:33:11.256Z,63.30
2019-03-27T20:35:42.726Z,63.00
2019-03-27T20:38:14.726Z,63.00
2019-03-27T20:40:57.309Z,63.20
2019-03-27T20:43:31.607Z,63.50
2019-03-27T20:46:03.783Z,63.50
2019-03-27T20:48:35.649Z,64.10
2019-03-27T20:51:07.260Z,63.90
2019-03-27T20:53:38.894Z,64.00
2019-03-27T20:56:11.072Z,64.40
2019-03-27T20:58:42.971Z,64.70
2019-03-27T21:01:14.621Z,64.70
2019-03-27T21:03:46.305Z,65.70
2019-03-27T21:06:17.734Z,64.60
2019-03-27T21:08:49.146Z,64.80
2019-03-27T21:11:21.693Z,64.80
2019-03-27T21:13:59.250Z,64.80
2019-03-27T21:16:31.324Z,65.20
2019-03-27T21:19:07.690Z,65.20
2019-03-27T21:21:45.885Z,65.30
2019-03-27T21:24:18.194Z,65.50
2019-03-27T21:26:49.941Z,65.70
2019-03-27T21:29:21.524Z,66.00
2019-03-27T21:31:53.025Z,65.60
2019-03-27T21:34:26.310Z,65.70
2019-03-27T21:36:57.896Z,65.50
2019-03-27T21:39:29.888Z,65.80
2019-03-27T21:42:01.986Z,65.80
2019-03-27T21:44:33.815Z,66.70
2019-03-27T21:47:05.803Z,66.40
2019-03-27T21:49:37.948Z,66.70
2019-03-27T21:52:09.714Z,66.60
2019-03-27T21:55:22.705Z,66.40
2019-03-27T21:58:02.322Z,66.90
2019-03-27T22:00:47.662Z,66.70
2019-03-27T22:03:24.026Z,66.70
2019-03-27T22:05:57.073Z,66.80
2019-03-27T22:08:32.538Z,67.10
2019-03-27T22:12:12.485Z,66.70
2019-03-27T22:15:25.457Z,67.00
2019-03-27T22:17:58.187Z,66.90
2019-03-27T22:20:39.334Z,67.40
2019-03-27T22:23:09.840Z,67.60
2019-03-27T22:25:41.013Z,67.90
2019-03-27T22:28:12.468Z,67.80
2019-03-27T22:30:43.738Z,67.90
2019-03-27T22:33:14.818Z,67.60
2019-03-27T22:35:45.903Z,67.60
2019-03-27T22:38:16.893Z,67.60
2019-03-27T22:40:48.013Z,67.90
2019-03-27T22:43:19.449Z,67.90
2019-03-27T22:45:50.958Z,67.80
2019-03-27T22:48:21.968Z,67.80
2019-03-27T22:50:53.661Z,67.90
2019-03-27T22:53:24.720Z,68.10
2019-03-27T22:55:55.928Z,68.60
2019-03-27T22:58:27.414Z,68.70
2019-03-27T23:00:58.845Z,68.00
2019-03-27T23:03:29.971Z,68.80
2019-03-27T23:06:01.086Z,69.00
2019-03-27T23:08:32.385Z,69.00
2019-03-27T23:11:03.604Z,69.00
2019-03-27T23:13:34.639Z,69.20
2019-03-27T23:16:05.838Z,69.70
2019-03-27T23:18:36.893Z,69.70
2019-03-27T23:21:08.011Z,70.20
2019-03-27T23:23:39.131Z,69.90
2019-03-27T23:26:10.146Z,69.90
2019-03-27T23:28:41.316Z,70.00
2019-03-27T23:31:12.337Z,69.90
2019-03-27T23:33:43.344Z,69.90
2019-03-27T23:36:14.514Z,70.10
2019-03-27T23:38:45.783Z,70.20
2019-03-27T23:41:16.801Z,70.00
2019-03-27T23:43:48.176Z,70.10
2019-03-27T23:46:19.228Z,70.00
2019-03-27T23:48:50.686Z,70.60
2019-03-27T23:51:21.727Z,70.30
2019-03-27T23:53:52.737Z,70.30
2019-03-27T23:56:23.788Z,70.50
2019-03-27T23:58:54.814Z,70.40
